createdAt,value
2022-10-17T00:00:50.139Z,20.53
2022-10-17T00:03:17.970Z,20.45
2022-10-17T00:05:47.704Z,20.44
2022-10-17T00:08:16.615Z,20.46
2022-10-17T00:10:43.122Z,20.38
2022-10-17T00:13:11.114Z,20.38
2022-10-17T00:15:38.607Z,20.37
2022-10-17T00:18:05.210Z,20.36
2022-10-17T00:20:35.620Z,20.35
2022-10-17T00:23:02.272Z,20.26
2022-10-17T00:25:28.818Z,20.24
2022-10-17T00:27:55.328Z,20.26
2022-10-17T00:30:21.848Z,20.24
2022-10-17T00:32:48.447Z,20.23
2022-10-17T00:35:15.109Z,20.13
2022-10-17T00:37:41.682Z,20.16
2022-10-17T00:40:09.388Z,20.07
2022-10-17T00:42:36.012Z,20.04
2022-10-17T00:45:05.380Z,20.00
2022-10-17T00:47:35.406Z,20.02
2022-10-17T00:50:04.800Z,20.00
2022-10-17T00:52:32.736Z,20.04
2022-10-17T00:55:24.349Z,20.04
2022-10-17T00:57:52.611Z,20.05
2022-10-17T01:00:19.513Z,20.02
2022-10-17T01:02:46.263Z,19.99
2022-10-17T01:05:13.939Z,19.97
2022-10-17T01:07:42.904Z,19.90
2022-10-17T01:10:12.839Z,19.94
2022-10-17T01:12:52.536Z,19.93
2022-10-17T01:15:41.458Z,19.89
2022-10-17T01:18:32.702Z,19.86
2022-10-17T01:21:23.480Z,19.89
2022-10-17T01:24:05.033Z,19.89
2022-10-17T01:26:58.026Z,19.90
2022-10-17T01:29:34.312Z,19.90
2022-10-17T01:32:42.489Z,19.77
2022-10-17T01:35:12.030Z,19.43
2022-10-17T01:38:13.298Z,19.58
2022-10-17T01:40:53.535Z,19.55
2022-10-17T01:43:31.388Z,19.44
2022-10-17T01:46:15.300Z,19.53
2022-10-17T01:48:45.758Z,19.57
2022-10-17T01:51:21.275Z,19.58
2022-10-17T01:53:57.146Z,19.55
2022-10-17T01:56:29.960Z,19.58
2022-10-17T01:59:04.703Z,19.55
2022-10-17T02:01:32.332Z,19.58
2022-10-17T02:04:02.549Z,19.58
2022-10-17T02:06:29.116Z,19.63
2022-10-17T02:08:57.842Z,19.61
2022-10-17T02:11:27.266Z,19.61
2022-10-17T02:14:06.096Z,19.61
2022-10-17T02:16:35.818Z,19.47
2022-10-17T02:19:40.722Z,19.58
2022-10-17T02:22:41.108Z,19.66
2022-10-17T02:25:34.586Z,19.63
2022-10-17T02:28:16.221Z,19.63
2022-10-17T02:30:53.207Z,19.61
2022-10-17T02:33:33.041Z,19.60
2022-10-17T02:36:08.830Z,19.60
2022-10-17T02:38:35.843Z,19.61
2022-10-17T02:41:06.286Z,19.64
2022-10-17T02:43:36.117Z,19.63
2022-10-17T02:46:02.882Z,19.64
2022-10-17T02:48:51.946Z,19.51
2022-10-17T02:51:37.390Z,19.49
2022-10-17T02:54:17.972Z,19.47
2022-10-17T02:56:53.337Z,19.46
2022-10-17T02:59:25.228Z,19.41
2022-10-17T03:01:52.257Z,19.40
2022-10-17T03:04:19.634Z,19.38
2022-10-17T03:06:48.115Z,19.38
2022-10-17T03:09:15.290Z,19.35
2022-10-17T03:11:42.083Z,19.29
2022-10-17T03:14:08.810Z,19.22
2022-10-17T03:16:35.328Z,19.30
2022-10-17T03:19:02.035Z,19.31
2022-10-17T03:21:28.551Z,19.25
2022-10-17T03:23:55.056Z,19.32
2022-10-17T03:26:23.339Z,19.35
2022-10-17T03:28:53.477Z,19.31
2022-10-17T03:31:22.176Z,19.22
2022-10-17T03:33:48.938Z,19.16
2022-10-17T03:36:18.639Z,19.20
2022-10-17T03:38:46.532Z,19.24
2022-10-17T03:41:13.663Z,19.24
2022-10-17T03:43:40.666Z,19.21
2022-10-17T03:46:07.918Z,19.21
2022-10-17T03:48:34.539Z,19.04
2022-10-17T03:51:06.343Z,19.10
2022-10-17T03:53:33.139Z,18.95
2022-10-17T03:56:28.992Z,19.03
2022-10-17T03:58:56.017Z,19.09
2022-10-17T04:01:23.258Z,19.09
2022-10-17T04:03:52.117Z,19.07
2022-10-17T04:06:19.507Z,19.00
2022-10-17T04:08:46.002Z,19.04
2022-10-17T04:11:18.332Z,19.09
2022-10-17T04:13:46.133Z,19.10
2022-10-17T04:16:15.850Z,19.05
2022-10-17T04:18:42.896Z,19.08
2022-10-17T04:21:09.965Z,19.11
2022-10-17T04:23:36.480Z,19.09
2022-10-17T04:26:04.590Z,18.99
2022-10-17T04:28:32.699Z,18.90
2022-10-17T04:31:06.255Z,18.95
2022-10-17T04:33:34.354Z,18.94
2022-10-17T04:36:04.270Z,18.91
2022-10-17T04:38:31.699Z,18.93
2022-10-17T04:41:03.382Z,18.66
2022-10-17T04:43:35.124Z,18.63
2022-10-17T04:46:05.475Z,18.62
2022-10-17T04:48:32.853Z,18.81
2022-10-17T04:51:08.694Z,18.78
2022-10-17T04:53:37.168Z,18.91
2022-10-17T04:56:12.712Z,18.84
2022-10-17T04:58:39.731Z,18.88
2022-10-17T05:01:25.320Z,18.93
2022-10-17T05:03:52.713Z,18.82
2022-10-17T05:06:24.988Z,18.84
2022-10-17T05:08:51.882Z,18.87
2022-10-17T05:11:22.867Z,18.70
2022-10-17T05:13:55.340Z,18.76
2022-10-17T05:16:23.366Z,18.74
2022-10-17T05:18:53.046Z,18.81
2022-10-17T05:21:21.737Z,18.81
2022-10-17T05:23:48.374Z,18.79
2022-10-17T05:26:15.319Z,18.67
2022-10-17T05:28:42.027Z,18.57
2022-10-17T05:31:10.620Z,18.56
2022-10-17T05:33:38.760Z,18.60
2022-10-17T05:36:06.936Z,18.69
2022-10-17T05:38:42.567Z,18.66
2022-10-17T05:41:10.407Z,18.69
2022-10-17T05:43:36.954Z,18.71
2022-10-17T05:46:05.858Z,18.70
2022-10-17T05:48:33.151Z,18.70
2022-10-17T05:51:03.660Z,18.68
2022-10-17T05:53:32.211Z,18.63
2022-10-17T05:56:01.647Z,18.57
2022-10-17T06:01:15.515Z,18.56
2022-10-17T06:03:42.304Z,18.63
2022-10-17T06:06:11.760Z,18.56
2022-10-17T06:08:38.778Z,18.53
2022-10-17T06:11:09.125Z,18.52
2022-10-17T06:13:37.383Z,18.56
2022-10-17T06:16:04.301Z,18.62
2022-10-17T06:18:30.856Z,18.64
2022-10-17T06:21:09.446Z,18.67
2022-10-17T06:23:35.985Z,18.73
2022-10-17T06:26:04.856Z,18.79
2022-10-17T06:28:31.620Z,18.80
2022-10-17T06:30:58.449Z,18.87
2022-10-17T06:33:25.107Z,18.80
2022-10-17T06:35:55.613Z,18.92
2022-10-17T06:38:22.883Z,18.89
2022-10-17T06:40:49.448Z,18.93
2022-10-17T06:43:16.081Z,19.03
2022-10-17T06:45:42.554Z,19.05
2022-10-17T06:48:09.120Z,19.10
2022-10-17T06:50:35.598Z,19.18
2022-10-17T06:53:02.119Z,19.29
2022-10-17T06:55:28.598Z,19.32
2022-10-17T06:57:56.971Z,19.44
2022-10-17T07:00:23.788Z,19.51
2022-10-17T07:02:50.263Z,19.55
2022-10-17T07:05:16.922Z,19.58
2022-10-17T07:07:44.858Z,19.59
2022-10-17T07:10:13.122Z,19.69
2022-10-17T07:12:39.766Z,19.74
2022-10-17T07:15:06.708Z,19.85
2022-10-17T07:17:33.288Z,19.95
2022-10-17T07:19:59.801Z,20.04
2022-10-17T07:22:26.336Z,20.08
2022-10-17T07:24:52.946Z,20.16
2022-10-17T07:27:21.408Z,20.26
2022-10-17T07:29:47.861Z,20.36
2022-10-17T07:32:14.602Z,20.44
2022-10-17T07:34:41.068Z,20.54
2022-10-17T07:37:08.008Z,20.65
2022-10-17T07:39:34.560Z,20.67
2022-10-17T07:42:01.078Z,20.75
2022-10-17T07:44:27.572Z,20.77
2022-10-17T07:46:54.058Z,20.84
2022-10-17T07:49:20.598Z,20.85
2022-10-17T07:51:48.237Z,21.03
2022-10-17T07:54:14.743Z,21.05
2022-10-17T07:56:41.268Z,21.22
2022-10-17T07:59:09.393Z,21.32
2022-10-17T08:01:36.573Z,21.31
2022-10-17T08:04:03.076Z,21.46
2022-10-17T08:06:29.579Z,21.44
2022-10-17T08:08:56.082Z,21.59
2022-10-17T08:11:22.605Z,21.59
2022-10-17T08:13:49.068Z,21.61
2022-10-17T08:16:15.504Z,21.54
2022-10-17T08:18:43.121Z,21.70
2022-10-17T08:21:11.527Z,21.74
2022-10-17T08:23:38.034Z,21.78
2022-10-17T08:26:07.626Z,21.67
2022-10-17T08:28:39.972Z,21.89
2022-10-17T08:31:10.135Z,22.00
2022-10-17T08:33:38.126Z,21.95
2022-10-17T08:36:06.561Z,21.90
2022-10-17T08:38:35.772Z,22.02
2022-10-17T08:41:13.283Z,22.09
2022-10-17T08:43:51.025Z,22.15
2022-10-17T08:46:20.151Z,22.15
2022-10-17T08:48:51.643Z,22.24
2022-10-17T08:52:00.881Z,22.27
2022-10-17T08:54:48.711Z,22.40
2022-10-17T08:57:17.111Z,22.43
2022-10-17T08:59:45.465Z,22.50
2022-10-17T09:02:23.986Z,22.27
2022-10-17T09:04:53.461Z,22.34
2022-10-17T09:07:38.389Z,22.50
2022-10-17T09:10:11.560Z,22.61
2022-10-17T09:13:07.707Z,22.61
2022-10-17T09:15:57.740Z,22.67
2022-10-17T09:18:31.779Z,22.70
2022-10-17T09:21:06.277Z,22.61
2022-10-17T09:23:48.669Z,22.47
2022-10-17T09:26:15.456Z,22.48
2022-10-17T09:28:43.942Z,22.64
2022-10-17T09:31:20.403Z,22.76
2022-10-17T09:33:54.268Z,22.85
2022-10-17T09:36:27.315Z,22.93
2022-10-17T09:38:59.682Z,22.89
2022-10-17T09:41:46.457Z,23.04
2022-10-17T09:44:16.334Z,23.07
2022-10-17T09:46:51.907Z,22.88
2022-10-17T09:49:28.739Z,22.94
2022-10-17T09:51:55.472Z,22.99
2022-10-17T09:54:51.646Z,23.14
2022-10-17T09:57:20.918Z,23.16
2022-10-17T09:59:58.241Z,23.21
2022-10-17T10:02:27.548Z,23.18
2022-10-17T10:05:05.094Z,23.30
2022-10-17T10:07:39.255Z,23.33
2022-10-17T10:10:22.889Z,23.10
2022-10-17T10:13:04.260Z,23.10
2022-10-17T10:15:38.824Z,23.07
2022-10-17T10:18:25.538Z,23.29
2022-10-17T10:21:20.925Z,23.33
2022-10-17T10:23:59.671Z,23.37
2022-10-17T10:26:38.316Z,23.20
2022-10-17T10:29:27.821Z,23.20
2022-10-17T10:31:55.565Z,23.04
2022-10-17T10:34:24.862Z,23.02
2022-10-17T10:36:59.351Z,23.26
2022-10-17T10:39:45.716Z,23.27
2022-10-17T10:42:42.444Z,23.39
2022-10-17T10:45:47.006Z,23.32
2022-10-17T10:48:24.064Z,23.62
2022-10-17T10:50:55.226Z,23.54
2022-10-17T10:53:55.314Z,23.74
2022-10-17T10:56:38.903Z,23.81
2022-10-17T10:59:08.510Z,23.85
2022-10-17T11:02:01.724Z,23.95
2022-10-17T11:04:42.247Z,23.97
2022-10-17T11:07:18.121Z,23.83
2022-10-17T11:10:23.601Z,23.64
2022-10-17T11:13:08.829Z,23.66
2022-10-17T11:15:40.784Z,23.75
2022-10-17T11:18:32.797Z,24.04
2022-10-17T11:21:11.544Z,23.96
2022-10-17T11:23:56.266Z,23.87
2022-10-17T11:26:43.042Z,23.92
2022-10-17T11:29:12.882Z,24.01
2022-10-17T11:31:50.346Z,23.85
2022-10-17T11:34:29.257Z,23.75
2022-10-17T11:37:05.598Z,23.74
2022-10-17T11:42:36.915Z,23.88
2022-10-17T11:45:16.760Z,24.13
2022-10-17T11:47:48.434Z,23.99
2022-10-17T11:53:24.498Z,24.07
2022-10-17T11:55:54.566Z,24.15
2022-10-17T12:01:33.851Z,24.41
2022-10-17T12:04:39.641Z,24.32
2022-10-17T12:07:24.655Z,24.47
2022-10-17T12:10:21.996Z,24.17
2022-10-17T12:12:48.675Z,24.43
2022-10-17T12:15:28.917Z,24.61
2022-10-17T12:17:58.935Z,24.78
2022-10-17T12:20:28.910Z,25.10
2022-10-17T12:23:10.174Z,25.25
2022-10-17T12:26:01.172Z,25.34
2022-10-17T12:28:45.981Z,25.48
2022-10-17T12:31:15.521Z,25.64
2022-10-17T12:33:49.773Z,25.68
2022-10-17T12:36:19.272Z,25.92
2022-10-17T12:38:49.865Z,26.03
2022-10-17T12:41:37.560Z,26.16
2022-10-17T12:44:13.347Z,26.10
2022-10-17T12:46:56.410Z,26.35
2022-10-17T12:49:55.782Z,26.27
2022-10-17T12:52:26.114Z,26.55
2022-10-17T12:55:12.003Z,26.74
2022-10-17T12:57:55.683Z,26.65
2022-10-17T13:00:37.125Z,27.05
2022-10-17T13:03:16.074Z,27.17
2022-10-17T13:05:52.399Z,27.15
2022-10-17T13:08:32.951Z,27.23
2022-10-17T13:11:01.204Z,27.44
2022-10-17T13:13:36.522Z,27.56
2022-10-17T13:16:03.118Z,27.67
2022-10-17T13:18:32.766Z,27.66
2022-10-17T13:21:05.966Z,27.87
2022-10-17T13:23:37.695Z,27.84
2022-10-17T13:26:14.322Z,27.92
2022-10-17T13:28:42.872Z,28.19
2022-10-17T13:31:31.099Z,28.08
2022-10-17T13:34:02.147Z,28.37
2022-10-17T13:36:31.269Z,28.52
2022-10-17T13:39:04.796Z,28.79
2022-10-17T13:41:36.589Z,28.52
2022-10-17T13:44:13.615Z,28.66
2022-10-17T13:46:40.832Z,28.97
2022-10-17T13:49:32.784Z,29.22
2022-10-17T13:52:02.450Z,29.40
2022-10-17T13:54:33.819Z,29.54
2022-10-17T13:57:01.769Z,29.78
2022-10-17T13:59:40.111Z,29.90
2022-10-17T14:02:16.079Z,30.38
2022-10-17T14:05:15.012Z,30.44
2022-10-17T14:08:09.255Z,30.82
2022-10-17T14:10:38.307Z,31.38
2022-10-17T14:13:08.261Z,31.26
2022-10-17T14:15:36.743Z,31.31
2022-10-17T14:18:08.058Z,31.85
2022-10-17T14:21:19.792Z,32.07
2022-10-17T14:23:44.720Z,32.20
2022-10-17T14:26:16.611Z,32.44
2022-10-17T14:29:32.309Z,32.76
2022-10-17T14:32:08.030Z,32.98
2022-10-17T14:34:38.844Z,33.28
2022-10-17T14:40:23.024Z,33.10
2022-10-17T14:42:51.531Z,32.79
2022-10-17T14:45:32.057Z,32.74
2022-10-17T14:48:13.982Z,32.51
2022-10-17T14:50:40.918Z,32.51
2022-10-17T14:53:10.339Z,32.82
2022-10-17T14:55:39.398Z,33.03
2022-10-17T14:58:17.652Z,33.13
2022-10-17T15:00:51.618Z,33.21
2022-10-17T15:03:18.142Z,33.41
2022-10-17T15:05:46.019Z,33.49
2022-10-17T15:08:21.202Z,33.62
2022-10-17T15:10:49.464Z,33.72
2022-10-17T15:13:27.584Z,33.83
2022-10-17T15:15:54.959Z,33.72
2022-10-17T15:18:21.596Z,33.69
2022-10-17T15:20:52.024Z,33.50
2022-10-17T15:23:26.373Z,33.49
2022-10-17T15:25:53.080Z,33.44
2022-10-17T15:28:22.686Z,33.36
2022-10-17T15:30:49.447Z,33.35
2022-10-17T15:33:15.959Z,33.08
2022-10-17T15:35:42.594Z,32.91
2022-10-17T15:38:09.132Z,32.78
2022-10-17T15:40:37.407Z,32.59
2022-10-17T15:43:06.352Z,32.17
2022-10-17T15:45:33.425Z,32.03
2022-10-17T15:48:18.603Z,31.84
2022-10-17T15:50:45.169Z,31.67
2022-10-17T15:53:12.152Z,31.43
2022-10-17T15:55:41.111Z,31.08
2022-10-17T15:58:15.699Z,30.73
2022-10-17T16:00:42.405Z,30.41
2022-10-17T16:03:09.077Z,30.10
2022-10-17T16:05:36.001Z,29.80
2022-10-17T16:08:02.763Z,29.52
2022-10-17T16:10:29.252Z,29.26
2022-10-17T16:12:55.833Z,28.97
2022-10-17T16:15:25.201Z,28.75
2022-10-17T16:17:53.984Z,28.50
2022-10-17T16:20:22.356Z,28.26
2022-10-17T16:22:49.746Z,27.95
2022-10-17T16:25:23.197Z,27.47
2022-10-17T16:27:53.239Z,27.28
2022-10-17T16:32:49.675Z,26.86
2022-10-17T16:35:20.065Z,26.64
2022-10-17T16:37:46.658Z,26.51
2022-10-17T16:40:13.968Z,26.32
2022-10-17T16:42:40.560Z,26.16
2022-10-17T16:45:07.710Z,26.02
2022-10-17T16:47:34.190Z,25.91
2022-10-17T16:50:00.737Z,25.84
2022-10-17T16:52:27.377Z,25.71
2022-10-17T16:54:53.979Z,25.30
2022-10-17T16:57:20.479Z,25.25
2022-10-17T16:59:46.947Z,25.07
2022-10-17T17:02:16.345Z,24.96
2022-10-17T17:04:45.505Z,24.91
2022-10-17T17:07:11.971Z,24.81
2022-10-17T17:09:39.419Z,24.72
2022-10-17T17:12:06.029Z,24.70
2022-10-17T17:14:32.523Z,24.63
2022-10-17T17:17:01.731Z,24.61
2022-10-17T17:19:28.206Z,24.55
2022-10-17T17:21:54.649Z,24.45
2022-10-17T17:24:21.507Z,24.35
2022-10-17T17:26:53.726Z,24.28
2022-10-17T17:29:21.098Z,24.18
2022-10-17T17:31:48.087Z,24.15
2022-10-17T17:34:18.009Z,24.14
2022-10-17T17:36:45.228Z,23.85
2022-10-17T17:39:14.196Z,23.17
2022-10-17T17:41:42.168Z,23.34
2022-10-17T17:44:14.040Z,23.41
2022-10-17T17:46:43.230Z,23.44
2022-10-17T17:49:10.996Z,23.46
2022-10-17T17:51:37.667Z,23.41
2022-10-17T17:54:04.241Z,23.42
2022-10-17T17:56:30.747Z,23.22
2022-10-17T17:59:01.088Z,23.26
2022-10-17T18:01:30.634Z,23.25
2022-10-17T18:03:58.975Z,23.22
2022-10-17T18:06:26.656Z,23.10
2022-10-17T18:08:55.918Z,23.10
2022-10-17T18:11:22.514Z,22.82
2022-10-17T18:13:54.286Z,23.02
2022-10-17T18:16:20.979Z,23.01
2022-10-17T18:18:48.978Z,23.02
2022-10-17T18:21:15.980Z,23.02
2022-10-17T18:23:44.464Z,22.97
2022-10-17T18:26:11.428Z,22.96
2022-10-17T18:28:39.425Z,22.84
2022-10-17T18:31:17.935Z,22.78
2022-10-17T18:33:45.417Z,22.71
2022-10-17T18:36:14.627Z,22.76
2022-10-17T18:38:41.765Z,22.70
2022-10-17T18:41:14.545Z,22.75
2022-10-17T18:43:43.250Z,22.45
2022-10-17T18:46:15.140Z,22.67
2022-10-17T18:48:44.387Z,22.61
2022-10-17T18:51:12.565Z,22.55
2022-10-17T18:53:44.198Z,22.54
2022-10-17T18:56:11.537Z,22.43
2022-10-17T18:58:39.474Z,22.51
2022-10-17T19:01:09.213Z,22.54
2022-10-17T19:03:35.815Z,22.53
2022-10-17T19:06:04.853Z,22.59
2022-10-17T19:08:33.181Z,22.61
2022-10-17T19:11:12.902Z,22.58
2022-10-17T19:13:40.685Z,22.54
2022-10-17T19:16:09.800Z,22.54
2022-10-17T19:18:37.155Z,22.55
2022-10-17T19:21:06.891Z,22.55
2022-10-17T19:23:34.011Z,22.51
2022-10-17T19:26:04.955Z,22.44
2022-10-17T19:28:33.020Z,22.39
2022-10-17T19:31:00.515Z,22.42
2022-10-17T19:35:58.720Z,22.43
2022-10-17T19:38:25.936Z,22.44
2022-10-17T19:40:53.433Z,22.43
2022-10-17T19:43:20.566Z,22.34
2022-10-17T19:46:01.252Z,22.29
2022-10-17T19:48:30.984Z,22.25
2022-10-17T19:50:58.796Z,22.29
2022-10-17T19:53:25.754Z,22.30
2022-10-17T19:55:52.287Z,22.29
2022-10-17T19:58:19.559Z,22.30
2022-10-17T20:00:48.116Z,22.26
2022-10-17T20:03:14.744Z,22.24
2022-10-17T20:05:41.541Z,22.22
2022-10-17T20:08:08.551Z,22.24
2022-10-17T20:10:35.027Z,22.17
2022-10-17T20:13:01.658Z,22.17
2022-10-17T20:15:28.267Z,22.20
2022-10-17T20:17:54.845Z,22.19
2022-10-17T20:20:21.629Z,22.27
2022-10-17T20:22:48.189Z,22.34
2022-10-17T20:25:14.818Z,22.31
2022-10-17T20:27:41.301Z,22.32
2022-10-17T20:30:08.763Z,22.44
2022-10-17T20:32:39.478Z,22.49
2022-10-17T20:35:07.531Z,22.51
2022-10-17T20:37:41.573Z,22.51
2022-10-17T20:40:33.665Z,22.48
2022-10-17T20:42:56.723Z,22.42
2022-10-17T20:45:37.433Z,22.48
2022-10-17T20:48:15.309Z,22.50
2022-10-17T20:50:43.637Z,22.49
2022-10-17T20:53:35.429Z,22.49
2022-10-17T20:56:04.166Z,22.39
2022-10-17T20:58:30.896Z,22.48
2022-10-17T21:00:58.714Z,22.48
2022-10-17T21:03:25.317Z,22.46
2022-10-17T21:05:51.805Z,22.49
2022-10-17T21:08:18.276Z,22.52
2022-10-17T21:10:50.586Z,22.54
2022-10-17T21:13:20.941Z,22.55
2022-10-17T21:15:47.454Z,22.51
2022-10-17T21:18:13.985Z,22.53
2022-10-17T21:20:40.537Z,22.54
2022-10-17T21:23:09.511Z,22.52
2022-10-17T21:25:36.052Z,22.55
2022-10-17T21:28:02.606Z,22.50
2022-10-17T21:30:29.425Z,22.54
2022-10-17T21:32:56.129Z,22.56
2022-10-17T21:35:22.798Z,22.57
2022-10-17T21:37:49.266Z,22.50
2022-10-17T21:40:15.813Z,22.51
2022-10-17T21:42:42.338Z,22.47
2022-10-17T21:45:15.027Z,22.52
2022-10-17T21:47:49.840Z,22.51
2022-10-17T21:50:27.645Z,22.52
2022-10-17T21:52:54.193Z,22.46
2022-10-17T21:55:20.848Z,22.50
2022-10-17T21:57:47.350Z,22.30
2022-10-17T22:00:14.217Z,22.34
2022-10-17T22:02:40.803Z,22.37
2022-10-17T22:05:07.637Z,22.34
2022-10-17T22:07:37.199Z,22.39
2022-10-17T22:10:03.972Z,22.37
2022-10-17T22:12:30.636Z,22.39
2022-10-17T22:14:57.275Z,22.44
2022-10-17T22:17:26.505Z,22.46
2022-10-17T22:19:53.166Z,22.46
2022-10-17T22:22:19.792Z,22.44
2022-10-17T22:24:46.415Z,22.42
2022-10-17T22:27:12.985Z,22.34
2022-10-17T22:29:39.686Z,22.35
2022-10-17T22:32:08.621Z,22.34
2022-10-17T22:34:35.179Z,22.30
2022-10-17T22:37:04.673Z,22.39
2022-10-17T22:39:31.195Z,22.43
2022-10-17T22:41:57.717Z,22.44
2022-10-17T22:44:33.124Z,22.35
2022-10-17T22:46:59.587Z,22.38
2022-10-17T22:49:26.059Z,22.45
2022-10-17T22:51:52.551Z,22.47
2022-10-17T22:54:18.977Z,22.45
2022-10-17T22:56:45.485Z,22.42
2022-10-17T22:59:11.960Z,22.42
2022-10-17T23:01:38.472Z,22.38
2022-10-17T23:04:05.036Z,22.39
2022-10-17T23:06:31.552Z,22.42
2022-10-17T23:08:58.402Z,22.41
2022-10-17T23:11:24.967Z,22.44
2022-10-17T23:13:51.426Z,22.44
2022-10-17T23:16:17.947Z,22.43
2022-10-17T23:18:44.671Z,22.41
2022-10-17T23:21:11.594Z,22.46
2022-10-17T23:23:38.060Z,22.47
2022-10-17T23:26:10.976Z,22.47
2022-10-17T23:28:38.355Z,22.47
2022-10-17T23:31:16.341Z,22.46
2022-10-17T23:33:47.089Z,22.39
2022-10-17T23:36:16.186Z,22.24
2022-10-17T23:38:44.553Z,22.11
2022-10-17T23:41:11.872Z,22.06
2022-10-17T23:43:38.419Z,22.05
2022-10-17T23:46:06.242Z,21.90
2022-10-17T23:48:33.560Z,21.76
2022-10-17T23:51:00.175Z,21.50
2022-10-17T23:53:26.687Z,21.67
2022-10-17T23:55:53.431Z,21.73
2022-10-17T23:58:19.938Z,21.79
